sensor_id;sensor_type;location;lat;lon;timestamp;pressure;altitude;pressure_sealevel;temperature;humidity
77216;BME280;66210;53.282;9.864;2023-06-14T00:02:01;101275.00;;;16.06;59.84
77216;BME280;66210;53.282;9.864;2023-06-14T00:04:28;101286.97;;;16.07;60.07
77216;BME280;66210;53.282;9.864;2023-06-14T00:06:56;101290.38;;;16.06;59.98
77216;BME280;66210;53.282;9.864;2023-06-14T00:09:23;101290.25;;;16.01;59.87
77216;BME280;66210;53.282;9.864;2023-06-14T00:11:50;101291.16;;;16.03;60.01
77216;BME280;66210;53.282;9.864;2023-06-14T00:14:17;101288.59;;;16.03;60.12
77216;BME280;66210;53.282;9.864;2023-06-14T00:16:43;101290.25;;;16.03;60.01
77216;BME280;66210;53.282;9.864;2023-06-14T00:19:10;101293.75;;;16.05;59.75
77216;BME280;66210;53.282;9.864;2023-06-14T00:21:38;101291.09;;;16.02;59.99
77216;BME280;66210;53.282;9.864;2023-06-14T00:24:05;101300.56;;;16.04;60.21
77216;BME280;66210;53.282;9.864;2023-06-14T00:26:32;101297.03;;;16.00;60.36
77216;BME280;66210;53.282;9.864;2023-06-14T00:28:59;101303.00;;;15.99;60.10
77216;BME280;66210;53.282;9.864;2023-06-14T00:31:26;101303.78;;;15.98;60.12
77216;BME280;66210;53.282;9.864;2023-06-14T00:33:52;101305.41;;;15.95;60.23
77216;BME280;66210;53.282;9.864;2023-06-14T00:36:19;101311.41;;;15.95;60.15
77216;BME280;66210;53.282;9.864;2023-06-14T00:38:46;101303.56;;;15.91;60.51
77216;BME280;66210;53.282;9.864;2023-06-14T00:41:13;101304.47;;;15.93;60.35
77216;BME280;66210;53.282;9.864;2023-06-14T00:43:40;101295.81;;;15.89;60.50
77216;BME280;66210;53.282;9.864;2023-06-14T00:46:06;101306.94;;;15.90;60.28
77216;BME280;66210;53.282;9.864;2023-06-14T00:48:34;101293.81;;;15.80;60.02
77216;BME280;66210;53.282;9.864;2023-06-14T00:51:02;101311.97;;;15.87;60.24
77216;BME280;66210;53.282;9.864;2023-06-14T00:53:31;101315.22;;;15.83;59.90
77216;BME280;66210;53.282;9.864;2023-06-14T00:56:00;101323.81;;;15.83;59.91
77216;BME280;66210;53.282;9.864;2023-06-14T00:58:27;101319.44;;;15.80;60.16
77216;BME280;66210;53.282;9.864;2023-06-14T01:00:55;101317.59;;;15.76;59.80
77216;BME280;66210;53.282;9.864;2023-06-14T01:03:22;101322.72;;;15.76;60.13
77216;BME280;66210;53.282;9.864;2023-06-14T01:05:56;101312.34;;;15.73;60.44
77216;BME280;66210;53.282;9.864;2023-06-14T01:11:12;101305.19;;;15.65;60.59
77216;BME280;66210;53.282;9.864;2023-06-14T01:13:43;101317.06;;;15.63;60.42
77216;BME280;66210;53.282;9.864;2023-06-14T01:16:12;101320.41;;;15.60;60.39
77216;BME280;66210;53.282;9.864;2023-06-14T01:18:40;101328.06;;;15.58;60.51
77216;BME280;66210;53.282;9.864;2023-06-14T01:21:20;101322.81;;;15.55;60.79
77216;BME280;66210;53.282;9.864;2023-06-14T01:23:47;101327.84;;;15.52;60.72
77216;BME280;66210;53.282;9.864;2023-06-14T01:26:21;101318.19;;;15.45;60.86
77216;BME280;66210;53.282;9.864;2023-06-14T01:28:49;101312.09;;;15.42;60.96
77216;BME280;66210;53.282;9.864;2023-06-14T01:31:19;101318.03;;;15.41;61.11
77216;BME280;66210;53.282;9.864;2023-06-14T01:33:49;101312.75;;;15.36;61.57
77216;BME280;66210;53.282;9.864;2023-06-14T01:36:19;101315.19;;;15.33;61.42
77216;BME280;66210;53.282;9.864;2023-06-14T01:38:47;101314.16;;;15.28;61.44
77216;BME280;66210;53.282;9.864;2023-06-14T01:41:17;101318.41;;;15.27;61.47
77216;BME280;66210;53.282;9.864;2023-06-14T01:43:46;101323.47;;;15.26;61.54
77216;BME280;66210;53.282;9.864;2023-06-14T01:46:15;101321.59;;;15.22;61.57
77216;BME280;66210;53.282;9.864;2023-06-14T01:48:43;101312.03;;;15.16;61.75
77216;BME280;66210;53.282;9.864;2023-06-14T01:51:10;101308.41;;;15.11;62.00
77216;BME280;66210;53.282;9.864;2023-06-14T01:53:36;101313.59;;;15.12;61.86
77216;BME280;66210;53.282;9.864;2023-06-14T01:56:03;101322.91;;;15.10;61.89
77216;BME280;66210;53.282;9.864;2023-06-14T01:58:30;101324.53;;;15.08;61.77
77216;BME280;66210;53.282;9.864;2023-06-14T02:00:57;101325.22;;;15.04;62.24
77216;BME280;66210;53.282;9.864;2023-06-14T02:03:24;101327.69;;;15.01;62.26
77216;BME280;66210;53.282;9.864;2023-06-14T02:05:52;101327.59;;;14.98;62.38
77216;BME280;66210;53.282;9.864;2023-06-14T02:08:18;101323.22;;;14.95;62.25
77216;BME280;66210;53.282;9.864;2023-06-14T02:10:45;101311.81;;;14.87;62.50
77216;BME280;66210;53.282;9.864;2023-06-14T02:13:12;101324.69;;;14.89;62.48
77216;BME280;66210;53.282;9.864;2023-06-14T02:15:39;101325.47;;;14.88;63.12
77216;BME280;66210;53.282;9.864;2023-06-14T02:18:06;101327.97;;;14.86;63.11
77216;BME280;66210;53.282;9.864;2023-06-14T02:20:33;101316.69;;;14.81;63.18
77216;BME280;66210;53.282;9.864;2023-06-14T02:23:00;101328.44;;;14.76;63.04
77216;BME280;66210;53.282;9.864;2023-06-14T02:25:27;101326.69;;;14.75;63.05
77216;BME280;66210;53.282;9.864;2023-06-14T02:27:55;101330.94;;;14.74;63.19
77216;BME280;66210;53.282;9.864;2023-06-14T02:30:22;101336.00;;;14.73;62.67
77216;BME280;66210;53.282;9.864;2023-06-14T02:32:49;101330.00;;;14.72;62.58
77216;BME280;66210;53.282;9.864;2023-06-14T02:35:17;101336.63;;;14.67;62.91
77216;BME280;66210;53.282;9.864;2023-06-14T02:37:44;101332.22;;;14.63;63.59
77216;BME280;66210;53.282;9.864;2023-06-14T02:40:11;101332.97;;;14.61;63.69
77216;BME280;66210;53.282;9.864;2023-06-14T02:42:39;101322.56;;;14.56;63.21
77216;BME280;66210;53.282;9.864;2023-06-14T02:45:06;101338.78;;;14.57;63.40
77216;BME280;66210;53.282;9.864;2023-06-14T02:47:34;101331.03;;;14.55;63.52
77216;BME280;66210;53.282;9.864;2023-06-14T02:50:01;101336.06;;;14.53;63.14
77216;BME280;66210;53.282;9.864;2023-06-14T02:52:28;101338.50;;;14.50;63.23
77216;BME280;66210;53.282;9.864;2023-06-14T02:54:55;101347.84;;;14.50;63.94
77216;BME280;66210;53.282;9.864;2023-06-14T02:57:22;101323.44;;;14.35;63.95
77216;BME280;66210;53.282;9.864;2023-06-14T02:59:49;101337.34;;;14.42;64.12
77216;BME280;66210;53.282;9.864;2023-06-14T03:02:16;101341.59;;;14.42;64.10
77216;BME280;66210;53.282;9.864;2023-06-14T03:04:43;101338.88;;;14.39;64.56
77216;BME280;66210;53.282;9.864;2023-06-14T03:07:11;101338.78;;;14.35;64.02
77216;BME280;66210;53.282;9.864;2023-06-14T03:09:39;101340.50;;;14.37;64.45
77216;BME280;66210;53.282;9.864;2023-06-14T03:12:06;101347.31;;;14.36;64.21
77216;BME280;66210;53.282;9.864;2023-06-14T03:14:36;101352.41;;;14.36;64.60
77216;BME280;66210;53.282;9.864;2023-06-14T03:17:03;101351.47;;;14.34;63.82
77216;BME280;66210;53.282;9.864;2023-06-14T03:19:31;101350.50;;;14.30;64.35
77216;BME280;66210;53.282;9.864;2023-06-14T03:21:58;101342.50;;;14.23;64.07
77216;BME280;66210;53.282;9.864;2023-06-14T03:24:25;101355.53;;;14.29;64.00
77216;BME280;66210;53.282;9.864;2023-06-14T03:26:55;101364.91;;;14.28;64.67
77216;BME280;66210;53.282;9.864;2023-06-14T03:29:23;101367.31;;;14.25;64.83
77216;BME280;66210;53.282;9.864;2023-06-14T03:31:58;101373.19;;;14.23;65.33
77216;BME280;66210;53.282;9.864;2023-06-14T03:34:25;101379.13;;;14.22;65.70
77216;BME280;66210;53.282;9.864;2023-06-14T03:36:53;101379.91;;;14.21;65.36
77216;BME280;66210;53.282;9.864;2023-06-14T03:39:20;101372.38;;;14.24;65.39
77216;BME280;66210;53.282;9.864;2023-06-14T03:41:47;101364.47;;;14.18;64.91
77216;BME280;66210;53.282;9.864;2023-06-14T03:44:18;101383.59;;;14.27;65.42
77216;BME280;66210;53.282;9.864;2023-06-14T03:46:45;101382.66;;;14.25;65.48
77216;BME280;66210;53.282;9.864;2023-06-14T03:49:13;101383.59;;;14.27;65.71
77216;BME280;66210;53.282;9.864;2023-06-14T03:51:40;101390.41;;;14.27;65.53
77216;BME280;66210;53.282;9.864;2023-06-14T03:54:07;101399.00;;;14.29;64.88
77216;BME280;66210;53.282;9.864;2023-06-14T03:56:54;101391.34;;;14.29;65.53
77216;BME280;66210;53.282;9.864;2023-06-14T03:59:21;101399.94;;;14.31;65.55
77216;BME280;66210;53.282;9.864;2023-06-14T04:01:48;101407.53;;;14.29;65.88
77216;BME280;66210;53.282;9.864;2023-06-14T04:04:15;101410.97;;;14.30;66.12
77216;BME280;66210;53.282;9.864;2023-06-14T04:06:43;101416.03;;;14.28;66.56
77216;BME280;66210;53.282;9.864;2023-06-14T04:09:10;101412.66;;;14.29;66.75
77216;BME280;66210;53.282;9.864;2023-06-14T04:11:36;101416.97;;;14.30;66.39
77216;BME280;66210;53.282;9.864;2023-06-14T04:14:03;101414.34;;;14.29;66.26
77216;BME280;66210;53.282;9.864;2023-06-14T04:16:30;101417.09;;;14.33;66.56
77216;BME280;66210;53.282;9.864;2023-06-14T04:18:57;101408.47;;;14.31;66.65
77216;BME280;66210;53.282;9.864;2023-06-14T04:21:24;101421.63;;;14.41;66.24
77216;BME280;66210;53.282;9.864;2023-06-14T04:23:54;101418.22;;;14.40;67.04
77216;BME280;66210;53.282;9.864;2023-06-14T04:26:22;101424.13;;;14.39;67.06
77216;BME280;66210;53.282;9.864;2023-06-14T04:28:53;101418.63;;;14.30;67.85
77216;BME280;66210;53.282;9.864;2023-06-14T04:31:23;101426.94;;;14.24;68.49
77216;BME280;66210;53.282;9.864;2023-06-14T04:33:53;101420.72;;;14.19;69.09
77216;BME280;66210;53.282;9.864;2023-06-14T04:36:20;101430.09;;;14.19;69.09
77216;BME280;66210;53.282;9.864;2023-06-14T04:38:47;101425.66;;;14.14;70.11
77216;BME280;66210;53.282;9.864;2023-06-14T04:41:16;101416.81;;;14.06;69.78
77216;BME280;66210;53.282;9.864;2023-06-14T04:43:42;101416.06;;;14.09;70.28
77216;BME280;66210;53.282;9.864;2023-06-14T04:46:09;101418.69;;;14.10;69.73
77216;BME280;66210;53.282;9.864;2023-06-14T04:48:39;101418.81;;;14.13;69.95
77216;BME280;66210;53.282;9.864;2023-06-14T04:51:08;101418.13;;;14.18;69.88
77216;BME280;66210;53.282;9.864;2023-06-14T04:53:35;101420.94;;;14.24;70.44
77216;BME280;66210;53.282;9.864;2023-06-14T04:56:02;101422.56;;;14.22;72.12
77216;BME280;66210;53.282;9.864;2023-06-14T04:58:30;101433.56;;;14.21;72.24
77216;BME280;66210;53.282;9.864;2023-06-14T05:00:59;101428.19;;;14.14;71.73
77216;BME280;66210;53.282;9.864;2023-06-14T05:03:26;101435.81;;;14.13;72.34
77216;BME280;66210;53.282;9.864;2023-06-14T05:05:54;101433.06;;;14.08;72.42
77216;BME280;66210;53.282;9.864;2023-06-14T05:08:21;101434.22;;;14.15;72.67
77216;BME280;66210;53.282;9.864;2023-06-14T05:10:52;101449.00;;;14.22;72.09
77216;BME280;66210;53.282;9.864;2023-06-14T05:13:19;101439.91;;;14.29;71.60
77216;BME280;66210;53.282;9.864;2023-06-14T05:15:48;101439.22;;;14.33;72.04
77216;BME280;66210;53.282;9.864;2023-06-14T05:18:15;101441.03;;;14.35;72.43
77216;BME280;66210;53.282;9.864;2023-06-14T05:20:43;101436.84;;;14.38;72.29
77216;BME280;66210;53.282;9.864;2023-06-14T05:23:09;101427.63;;;14.41;71.75
77216;BME280;66210;53.282;9.864;2023-06-14T05:25:43;101442.06;;;14.60;71.03
77216;BME280;66210;53.282;9.864;2023-06-14T05:28:10;101429.47;;;14.65;70.82
77216;BME280;66210;53.282;9.864;2023-06-14T05:30:38;101432.97;;;14.67;71.13
77216;BME280;66210;53.282;9.864;2023-06-14T05:33:06;101446.81;;;14.72;70.99
77216;BME280;66210;53.282;9.864;2023-06-14T05:35:33;101434.53;;;14.63;70.95
77216;BME280;66210;53.282;9.864;2023-06-14T05:38:00;101437.25;;;14.68;71.40
77216;BME280;66210;53.282;9.864;2023-06-14T05:40:27;101433.84;;;14.67;71.71
77216;BME280;66210;53.282;9.864;2023-06-14T05:42:54;101445.00;;;14.69;71.77
77216;BME280;66210;53.282;9.864;2023-06-14T05:45:21;101447.75;;;14.74;71.44
77216;BME280;66210;53.282;9.864;2023-06-14T05:47:47;101440.31;;;14.80;70.82
77216;BME280;66210;53.282;9.864;2023-06-14T05:50:14;101443.94;;;14.85;70.74
77216;BME280;66210;53.282;9.864;2023-06-14T05:52:41;101440.09;;;14.96;70.38
77216;BME280;66210;53.282;9.864;2023-06-14T05:55:08;101440.53;;;15.07;69.86
77216;BME280;66210;53.282;9.864;2023-06-14T05:57:35;101454.72;;;15.22;69.71
77216;BME280;66210;53.282;9.864;2023-06-14T06:00:02;101461.09;;;15.31;69.36
77216;BME280;66210;53.282;9.864;2023-06-14T06:02:36;101457.97;;;15.40;68.78
77216;BME280;66210;53.282;9.864;2023-06-14T06:05:03;101460.09;;;15.50;68.44
77216;BME280;66210;53.282;9.864;2023-06-14T06:07:29;101460.34;;;15.58;67.95
77216;BME280;66210;53.282;9.864;2023-06-14T06:09:56;101461.53;;;15.66;67.79
77216;BME280;66210;53.282;9.864;2023-06-14T06:12:23;101465.44;;;15.79;67.61
77216;BME280;66210;53.282;9.864;2023-06-14T06:14:49;101459.78;;;15.88;65.87
77216;BME280;66210;53.282;9.864;2023-06-14T06:17:16;101465.09;;;15.92;66.28
77216;BME280;66210;53.282;9.864;2023-06-14T06:19:42;101450.81;;;16.00;66.28
77216;BME280;66210;53.282;9.864;2023-06-14T06:22:09;101458.28;;;16.18;66.04
77216;BME280;66210;53.282;9.864;2023-06-14T06:24:36;101462.09;;;16.30;65.07
77216;BME280;66210;53.282;9.864;2023-06-14T06:27:03;101471.63;;;16.34;64.90
77216;BME280;66210;53.282;9.864;2023-06-14T06:29:29;101460.88;;;16.44;64.75
77216;BME280;66210;53.282;9.864;2023-06-14T06:31:56;101468.09;;;16.56;63.96
77216;BME280;66210;53.282;9.864;2023-06-14T06:34:22;101460.50;;;16.59;63.60
77216;BME280;66210;53.282;9.864;2023-06-14T06:36:49;101464.19;;;16.67;62.60
77216;BME280;66210;53.282;9.864;2023-06-14T06:39:16;101464.41;;;16.73;62.46
77216;BME280;66210;53.282;9.864;2023-06-14T06:41:42;101462.75;;;16.75;61.85
77216;BME280;66210;53.282;9.864;2023-06-14T06:44:09;101466.09;;;16.73;62.44
77216;BME280;66210;53.282;9.864;2023-06-14T06:46:39;101470.66;;;16.81;61.79
77216;BME280;66210;53.282;9.864;2023-06-14T06:49:07;101478.00;;;16.96;61.51
77216;BME280;66210;53.282;9.864;2023-06-14T06:51:35;101479.22;;;17.08;60.69
77216;BME280;66210;53.282;9.864;2023-06-14T06:54:01;101490.81;;;17.23;59.43
77216;BME280;66210;53.282;9.864;2023-06-14T06:56:29;101485.03;;;17.29;58.79
77216;BME280;66210;53.282;9.864;2023-06-14T06:58:55;101488.00;;;17.43;58.67
77216;BME280;66210;53.282;9.864;2023-06-14T07:01:22;101494.34;;;17.54;58.37
77216;BME280;66210;53.282;9.864;2023-06-14T07:03:50;101498.59;;;17.54;57.38
77216;BME280;66210;53.282;9.864;2023-06-14T07:06:17;101488.97;;;17.47;57.75
77216;BME280;66210;53.282;9.864;2023-06-14T07:08:45;101492.34;;;17.45;57.90
77216;BME280;66210;53.282;9.864;2023-06-14T07:11:12;101499.06;;;17.40;58.15
77216;BME280;66210;53.282;9.864;2023-06-14T07:13:39;101487.75;;;17.35;58.31
77216;BME280;66210;53.282;9.864;2023-06-14T07:16:06;101487.75;;;17.35;58.03
77216;BME280;66210;53.282;9.864;2023-06-14T07:18:32;101494.06;;;17.45;58.45
77216;BME280;66210;53.282;9.864;2023-06-14T07:20:59;101503.03;;;17.59;57.44
77216;BME280;66210;53.282;9.864;2023-06-14T07:23:26;101488.72;;;17.67;56.70
77216;BME280;66210;53.282;9.864;2023-06-14T07:25:53;101484.56;;;17.73;56.25
77216;BME280;66210;53.282;9.864;2023-06-14T07:28:19;101490.06;;;17.83;56.67
77216;BME280;66210;53.282;9.864;2023-06-14T07:30:46;101470.47;;;17.87;56.07
77216;BME280;66210;53.282;9.864;2023-06-14T07:33:14;101481.16;;;18.02;55.83
77216;BME280;66210;53.282;9.864;2023-06-14T07:35:41;101484.97;;;18.17;55.88
77216;BME280;66210;53.282;9.864;2023-06-14T07:38:08;101484.34;;;18.25;55.87
77216;BME280;66210;53.282;9.864;2023-06-14T07:40:35;101487.16;;;18.35;54.03
77216;BME280;66210;53.282;9.864;2023-06-14T07:43:02;101492.38;;;18.38;54.58
77216;BME280;66210;53.282;9.864;2023-06-14T07:45:29;101487.28;;;18.39;54.47
77216;BME280;66210;53.282;9.864;2023-06-14T07:47:56;101491.22;;;18.26;54.36
77216;BME280;66210;53.282;9.864;2023-06-14T07:50:23;101486.13;;;18.28;54.75
77216;BME280;66210;53.282;9.864;2023-06-14T07:52:50;101482.19;;;18.41;54.72
77216;BME280;66210;53.282;9.864;2023-06-14T07:55:17;101482.66;;;18.61;54.65
77216;BME280;66210;53.282;9.864;2023-06-14T07:57:44;101473.00;;;18.85;53.78
77216;BME280;66210;53.282;9.864;2023-06-14T08:00:11;101475.94;;;18.99;52.29
77216;BME280;66210;53.282;9.864;2023-06-14T08:02:44;101473.91;;;19.25;52.05
77216;BME280;66210;53.282;9.864;2023-06-14T08:05:11;101478.78;;;19.52;52.05
77216;BME280;66210;53.282;9.864;2023-06-14T08:07:39;101482.63;;;19.70;49.97
77216;BME280;66210;53.282;9.864;2023-06-14T08:10:07;101475.84;;;19.73;50.30
77216;BME280;66210;53.282;9.864;2023-06-14T08:12:34;101481.44;;;19.97;50.06
77216;BME280;66210;53.282;9.864;2023-06-14T08:15:01;101471.38;;;20.10;49.40
77216;BME280;66210;53.282;9.864;2023-06-14T08:17:34;101475.56;;;20.02;48.44
77216;BME280;66210;53.282;9.864;2023-06-14T08:20:02;101474.66;;;20.02;49.17
77216;BME280;66210;53.282;9.864;2023-06-14T08:22:31;101480.19;;;20.20;48.99
77216;BME280;66210;53.282;9.864;2023-06-14T08:25:00;101477.50;;;20.15;48.28
77216;BME280;66210;53.282;9.864;2023-06-14T08:27:27;101482.69;;;20.17;48.36
77216;BME280;66210;53.282;9.864;2023-06-14T08:29:56;101483.63;;;20.21;48.77
77216;BME280;66210;53.282;9.864;2023-06-14T08:32:23;101476.00;;;20.27;49.03
77216;BME280;66210;53.282;9.864;2023-06-14T08:34:50;101485.41;;;20.72;47.87
77216;BME280;66210;53.282;9.864;2023-06-14T08:37:30;101471.97;;;20.96;46.31
77216;BME280;66210;53.282;9.864;2023-06-14T08:39:57;101474.09;;;21.22;45.61
77216;BME280;66210;53.282;9.864;2023-06-14T08:42:24;101474.44;;;21.48;45.91
77216;BME280;66210;53.282;9.864;2023-06-14T08:44:58;101467.19;;;21.88;45.33
77216;BME280;66210;53.282;9.864;2023-06-14T08:47:26;101468.53;;;22.31;44.49
77216;BME280;66210;53.282;9.864;2023-06-14T08:49:54;101473.19;;;22.72;43.39
77216;BME280;66210;53.282;9.864;2023-06-14T08:52:26;101475.72;;;22.66;42.61
77216;BME280;66210;53.282;9.864;2023-06-14T08:54:56;101486.41;;;22.10;43.11
77216;BME280;66210;53.282;9.864;2023-06-14T08:57:24;101469.63;;;21.77;43.73
77216;BME280;66210;53.282;9.864;2023-06-14T08:59:52;101475.75;;;21.82;44.43
77216;BME280;66210;53.282;9.864;2023-06-14T09:02:19;101471.50;;;21.89;43.17
77216;BME280;66210;53.282;9.864;2023-06-14T09:04:49;101466.38;;;21.95;43.76
77216;BME280;66210;53.282;9.864;2023-06-14T09:07:18;101462.22;;;22.08;43.53
77216;BME280;66210;53.282;9.864;2023-06-14T09:09:45;101466.66;;;22.21;42.10
77216;BME280;66210;53.282;9.864;2023-06-14T09:12:32;101468.59;;;22.42;42.93
77216;BME280;66210;53.282;9.864;2023-06-14T09:14:59;101465.44;;;22.77;42.31
77216;BME280;66210;53.282;9.864;2023-06-14T09:17:26;101465.53;;;22.88;41.63
77216;BME280;66210;53.282;9.864;2023-06-14T09:19:55;101468.91;;;22.79;41.86
77216;BME280;66210;53.282;9.864;2023-06-14T09:22:22;101485.78;;;22.32;42.33
77216;BME280;66210;53.282;9.864;2023-06-14T09:24:48;101480.59;;;22.32;42.27
77216;BME280;66210;53.282;9.864;2023-06-14T09:27:15;101480.66;;;22.35;42.09
77216;BME280;66210;53.282;9.864;2023-06-14T09:29:42;101479.09;;;22.54;42.81
77216;BME280;66210;53.282;9.864;2023-06-14T09:32:09;101474.91;;;22.70;42.16
77216;BME280;66210;53.282;9.864;2023-06-14T09:34:37;101470.50;;;22.58;41.98
77216;BME280;66210;53.282;9.864;2023-06-14T09:37:04;101470.44;;;22.55;42.49
77216;BME280;66210;53.282;9.864;2023-06-14T09:39:31;101468.00;;;22.72;41.25
77216;BME280;66210;53.282;9.864;2023-06-14T09:41:58;101487.06;;;22.79;41.78
77216;BME280;66210;53.282;9.864;2023-06-14T09:44:25;101482.78;;;22.89;41.11
77216;BME280;66210;53.282;9.864;2023-06-14T09:46:55;101476.59;;;22.68;40.88
77216;BME280;66210;53.282;9.864;2023-06-14T09:49:22;101476.66;;;22.71;41.29
77216;BME280;66210;53.282;9.864;2023-06-14T09:51:50;101474.94;;;22.76;40.71
77216;BME280;66210;53.282;9.864;2023-06-14T09:54:22;101471.53;;;22.80;40.99
77216;BME280;66210;53.282;9.864;2023-06-14T09:56:50;101482.84;;;22.92;40.99
77216;BME280;66210;53.282;9.864;2023-06-14T09:59:22;101473.41;;;23.01;40.14
77216;BME280;66210;53.282;9.864;2023-06-14T10:01:57;101469.28;;;23.34;39.77
77216;BME280;66210;53.282;9.864;2023-06-14T10:04:27;101472.81;;;23.45;39.11
77216;BME280;66210;53.282;9.864;2023-06-14T10:06:56;101460.69;;;23.41;39.72
77216;BME280;66210;53.282;9.864;2023-06-14T10:09:23;101471.84;;;23.31;39.23
77216;BME280;66210;53.282;9.864;2023-06-14T10:11:50;101469.16;;;23.10;39.78
77216;BME280;66210;53.282;9.864;2023-06-14T10:14:17;101465.81;;;23.31;39.49
77216;BME280;66210;53.282;9.864;2023-06-14T10:17:08;101470.97;;;23.29;39.31
77216;BME280;66210;53.282;9.864;2023-06-14T10:19:45;101471.00;;;23.31;39.74
77216;BME280;66210;53.282;9.864;2023-06-14T10:22:19;101465.00;;;23.42;39.08
77216;BME280;66210;53.282;9.864;2023-06-14T10:24:51;101469.31;;;23.42;39.51
77216;BME280;66210;53.282;9.864;2023-06-14T10:27:18;101470.13;;;23.33;39.66
77216;BME280;66210;53.282;9.864;2023-06-14T10:32:23;101452.84;;;23.34;38.60
77216;BME280;66210;53.282;9.864;2023-06-14T10:34:59;101465.69;;;23.14;39.24
77216;BME280;66210;53.282;9.864;2023-06-14T10:37:26;101460.28;;;22.78;40.09
77216;BME280;66210;53.282;9.864;2023-06-14T10:39:53;101447.16;;;22.57;40.29
77216;BME280;66210;53.282;9.864;2023-06-14T10:42:20;101461.81;;;22.52;40.95
77216;BME280;66210;53.282;9.864;2023-06-14T10:44:50;101471.91;;;22.26;40.78
77216;BME280;66210;53.282;9.864;2023-06-14T10:47:25;101457.94;;;22.10;41.10
77216;BME280;66210;53.282;9.864;2023-06-14T10:49:55;101446.97;;;22.34;40.58
77216;BME280;66210;53.282;9.864;2023-06-14T10:52:25;101437.81;;;22.76;40.37
77216;BME280;66210;53.282;9.864;2023-06-14T10:57:52;101436.69;;;24.04;37.58
77216;BME280;66210;53.282;9.864;2023-06-14T11:00:27;101448.78;;;23.93;37.85
77216;BME280;66210;53.282;9.864;2023-06-14T11:05:56;101435.59;;;23.34;39.64
77216;BME280;66210;53.282;9.864;2023-06-14T11:08:32;101436.50;;;23.53;38.41
77216;BME280;66210;53.282;9.864;2023-06-14T11:11:07;101426.16;;;23.62;38.28
77216;BME280;66210;53.282;9.864;2023-06-14T11:13:38;101422.81;;;23.83;37.25
77216;BME280;66210;53.282;9.864;2023-06-14T11:16:13;101434.09;;;23.99;36.37
77216;BME280;66210;53.282;9.864;2023-06-14T11:18:41;101422.84;;;24.23;36.67
77216;BME280;66210;53.282;9.864;2023-06-14T11:21:09;101420.25;;;24.39;35.78
77216;BME280;66210;53.282;9.864;2023-06-14T11:23:36;101415.94;;;24.58;35.29
77216;BME280;66210;53.282;9.864;2023-06-14T11:26:03;101415.06;;;24.65;34.38
77216;BME280;66210;53.282;9.864;2023-06-14T11:28:39;101415.91;;;24.32;34.70
77216;BME280;66210;53.282;9.864;2023-06-14T11:31:07;101421.00;;;23.69;35.85
77216;BME280;66210;53.282;9.864;2023-06-14T11:33:34;101411.44;;;23.60;36.17
77216;BME280;66210;53.282;9.864;2023-06-14T11:36:05;101398.59;;;24.09;36.37
77216;BME280;66210;53.282;9.864;2023-06-14T11:38:35;101396.81;;;24.88;34.56
77216;BME280;66210;53.282;9.864;2023-06-14T11:41:03;101387.13;;;25.38;33.80
77216;BME280;66210;53.282;9.864;2023-06-14T11:43:30;101395.00;;;25.27;33.98
77216;BME280;66210;53.282;9.864;2023-06-14T11:45:58;101395.97;;;24.84;34.66
77216;BME280;66210;53.282;9.864;2023-06-14T11:48:41;101391.66;;;24.34;35.86
77216;BME280;66210;53.282;9.864;2023-06-14T11:51:08;101407.25;;;24.00;36.78
77216;BME280;66210;53.282;9.864;2023-06-14T11:53:35;101395.91;;;23.66;36.54
77216;BME280;66210;53.282;9.864;2023-06-14T11:56:03;101395.09;;;23.76;36.68
77216;BME280;66210;53.282;9.864;2023-06-14T11:58:29;101395.13;;;23.95;37.48
77216;BME280;66210;53.282;9.864;2023-06-14T12:00:56;101395.13;;;24.15;36.98
77216;BME280;66210;53.282;9.864;2023-06-14T12:03:24;101389.09;;;24.36;36.14
77216;BME280;66210;53.282;9.864;2023-06-14T12:06:08;101389.09;;;24.66;35.81
77216;BME280;66210;53.282;9.864;2023-06-14T12:08:36;101388.22;;;24.69;35.01
77216;BME280;66210;53.282;9.864;2023-06-14T12:11:11;101385.63;;;24.58;35.90
77216;BME280;66210;53.282;9.864;2023-06-14T12:13:39;101390.81;;;24.31;35.69
77216;BME280;66210;53.282;9.864;2023-06-14T12:16:12;101389.06;;;24.39;35.71
77216;BME280;66210;53.282;9.864;2023-06-14T12:18:39;101383.91;;;24.26;35.55
77216;BME280;66210;53.282;9.864;2023-06-14T12:21:08;101371.78;;;23.95;36.38
77216;BME280;66210;53.282;9.864;2023-06-14T12:26:09;101400.09;;;23.26;37.50
77216;BME280;66210;53.282;9.864;2023-06-14T12:28:40;101381.72;;;22.89;38.28
77216;BME280;66210;53.282;9.864;2023-06-14T12:31:07;101386.81;;;22.67;39.31
77216;BME280;66210;53.282;9.864;2023-06-14T12:33:34;101385.03;;;22.63;38.97
77216;BME280;66210;53.282;9.864;2023-06-14T12:36:03;101379.13;;;22.89;38.06
77216;BME280;66210;53.282;9.864;2023-06-14T12:38:30;101371.66;;;23.50;36.79
77216;BME280;66210;53.282;9.864;2023-06-14T12:40:57;101364.00;;;23.95;35.85
77216;BME280;66210;53.282;9.864;2023-06-14T12:43:24;101363.13;;;24.16;35.80
77216;BME280;66210;53.282;9.864;2023-06-14T12:45:51;101370.91;;;23.97;36.44
77216;BME280;66210;53.282;9.864;2023-06-14T12:48:17;101376.84;;;23.58;36.17
77216;BME280;66210;53.282;9.864;2023-06-14T12:50:44;101381.94;;;23.27;37.32
77216;BME280;66210;53.282;9.864;2023-06-14T12:53:11;101375.84;;;23.13;37.73
77216;BME280;66210;53.282;9.864;2023-06-14T12:55:38;101385.28;;;23.04;37.16
77216;BME280;66210;53.282;9.864;2023-06-14T12:58:05;101383.47;;;22.90;37.15
77216;BME280;66210;53.282;9.864;2023-06-14T13:00:32;101374.78;;;22.80;37.71
77216;BME280;66210;53.282;9.864;2023-06-14T13:02:59;101379.22;;;22.99;38.06
77216;BME280;66210;53.282;9.864;2023-06-14T13:05:26;101375.03;;;23.23;37.51
77216;BME280;66210;53.282;9.864;2023-06-14T13:07:53;101375.94;;;23.39;37.36
77216;BME280;66210;53.282;9.864;2023-06-14T13:10:19;101375.13;;;23.57;36.62